Fillmore, Canada
Current Conditions -  °F | °C
As of 1:00 AM on Saturday 20 Dec 2014 (Local Time) from CYEN Reporting Station
Moderate Fog Moderate Fog  
Wind Chill: 15°   Ceiling: Unl
Heat Index: 21°   Visibility: 0.25mi
Dew Point: 19°   Wind: 5mph
Humidity: 93%   Direction: 110°ESE
Pressure: 29.9"   Gusts: NA
Location:  49.88°N, 103.43°W
Report Text: CYEN 200700Z 11004KT 1/4SM FZFG VV000 M06/M07 A2990 RMK FG8SLP161
Loading
Personal Weather Stations






























Interactive Weather Map New forecast layout! Learn more

10-Day Weather Forecast

Advertisements
Track Severe Weather on mobile